Weather at Paya Lebar Air Base

Public forecast

Using degrees Celsius for public forecast. Weather courtesy of forecast.io.

Current aviation weather report (METAR) for Paya Lebar Air Base

Report is more than 6 hours old.

Retrieved 2022/09/17 19:00 UTC (19 days ago):

WSAP 171900Z 02001KT 9999 FEW018 BKN300 27/24 Q1009

Aviation forecast (TAF) for Paya Lebar Air Base

Forecast is more than 12 hours old.

Retrieved 2022/09/17 18:09 UTC (19 days ago):

TAF WSAP 171700Z 1718/1900 19008KT 9999 FEW015 BKN020 TEMPO 1722/1801 3000 TSRA FEW012CB BKN015